createdAt,value
2023-05-25T00:00:15.781Z,880.00
2023-05-25T00:01:15.819Z,879.00
2023-05-25T00:02:15.944Z,882.00
2023-05-25T00:03:15.990Z,881.00
2023-05-25T00:04:16.199Z,876.00
2023-05-25T00:05:15.890Z,875.00
2023-05-25T00:06:15.940Z,875.00
2023-05-25T00:07:15.946Z,880.00
2023-05-25T00:08:15.978Z,881.00
2023-05-25T00:09:15.993Z,881.00
2023-05-25T00:10:16.020Z,883.00
2023-05-25T00:11:16.031Z,883.00
2023-05-25T00:12:16.047Z,883.00
2023-05-25T00:13:16.070Z,883.00
2023-05-25T00:14:16.109Z,882.00
2023-05-25T00:15:16.120Z,882.00
2023-05-25T00:16:16.144Z,881.00
2023-05-25T00:17:16.214Z,879.00
2023-05-25T00:18:16.211Z,881.00
2023-05-25T00:19:16.225Z,881.00
2023-05-25T00:20:16.299Z,882.00
2023-05-25T00:21:16.366Z,882.00
2023-05-25T00:22:16.292Z,881.00
2023-05-25T00:23:16.314Z,882.00
2023-05-25T00:24:16.326Z,882.00
2023-05-25T00:25:16.350Z,880.00
2023-05-25T00:26:16.368Z,880.00
2023-05-25T00:27:16.393Z,880.00
2023-05-25T00:28:16.430Z,876.00
2023-05-25T00:29:16.429Z,877.00
2023-05-25T00:30:16.447Z,875.00
2023-05-25T00:31:16.491Z,874.00
2023-05-25T00:32:16.481Z,874.00
2023-05-25T00:33:16.517Z,877.00
2023-05-25T00:34:16.511Z,879.00
2023-05-25T00:35:16.541Z,879.00
2023-05-25T00:36:16.569Z,879.00
2023-05-25T00:37:16.603Z,877.00
2023-05-25T00:38:16.621Z,877.00
2023-05-25T00:39:16.654Z,879.00
2023-05-25T00:40:16.679Z,879.00
2023-05-25T00:41:16.694Z,880.00
2023-05-25T00:42:16.751Z,880.00
2023-05-25T00:43:16.742Z,880.00
2023-05-25T00:44:16.847Z,877.00
2023-05-25T00:45:16.833Z,876.00
2023-05-25T00:46:16.834Z,874.00
2023-05-25T00:47:16.823Z,873.00
2023-05-25T00:48:16.864Z,875.00
2023-05-25T00:49:16.898Z,876.00
2023-05-25T00:50:16.887Z,877.00
2023-05-25T00:51:16.917Z,877.00
2023-05-25T00:52:16.928Z,878.00
2023-05-25T00:53:16.969Z,880.00
2023-05-25T00:54:16.967Z,878.00
2023-05-25T00:55:16.998Z,877.00
2023-05-25T00:56:17.022Z,878.00
2023-05-25T00:57:17.034Z,874.00
2023-05-25T00:58:17.060Z,874.00
2023-05-25T00:59:17.069Z,872.00
2023-05-25T01:00:17.097Z,872.00
2023-05-25T01:01:17.178Z,871.00
2023-05-25T01:02:17.204Z,870.00
2023-05-25T01:03:17.226Z,866.00
2023-05-25T01:04:17.180Z,866.00
2023-05-25T01:05:17.196Z,870.00
2023-05-25T01:06:17.222Z,869.00
2023-05-25T01:07:17.245Z,871.00
2023-05-25T01:08:17.290Z,871.00
2023-05-25T01:09:17.284Z,873.00
2023-05-25T01:10:17.352Z,874.00
2023-05-25T01:11:17.310Z,874.00
2023-05-25T01:12:17.344Z,874.00
2023-05-25T01:13:17.801Z,872.00
2023-05-25T01:14:17.374Z,874.00
2023-05-25T01:15:17.431Z,876.00
2023-05-25T01:16:17.468Z,876.00
2023-05-25T01:17:17.450Z,877.00
2023-05-25T01:18:17.471Z,880.00
2023-05-25T01:19:17.482Z,881.00
2023-05-25T01:20:17.554Z,879.00
2023-05-25T01:21:17.536Z,878.00
2023-05-25T01:22:17.553Z,876.00
2023-05-25T01:23:17.642Z,878.00
2023-05-25T01:24:17.659Z,878.00
2023-05-25T01:25:17.603Z,876.00
2023-05-25T01:26:17.632Z,875.00
2023-05-25T01:27:17.653Z,877.00
2023-05-25T01:28:17.671Z,876.00
2023-05-25T01:29:17.703Z,875.00
2023-05-25T01:30:17.723Z,873.00
2023-05-25T01:31:17.751Z,874.00
2023-05-25T01:32:17.934Z,875.00
2023-05-25T01:33:17.927Z,875.00
2023-05-25T01:34:17.823Z,876.00
2023-05-25T01:35:17.834Z,875.00
2023-05-25T01:36:17.866Z,873.00
2023-05-25T01:37:17.912Z,871.00
2023-05-25T01:38:17.931Z,871.00
2023-05-25T01:39:17.946Z,868.00
2023-05-25T01:40:17.967Z,871.00
2023-05-25T01:41:17.995Z,872.00
2023-05-25T01:42:18.011Z,870.00
2023-05-25T01:43:18.027Z,869.00
2023-05-25T01:44:18.037Z,871.00
2023-05-25T01:45:18.066Z,870.00
2023-05-25T01:46:18.158Z,870.00
2023-05-25T01:47:18.122Z,869.00
2023-05-25T01:48:18.156Z,871.00
2023-05-25T01:49:18.159Z,869.00
2023-05-25T01:50:18.190Z,864.00
2023-05-25T01:51:18.213Z,861.00
2023-05-25T01:52:18.261Z,863.00
2023-05-25T01:53:18.285Z,867.00
2023-05-25T01:54:18.293Z,869.00
2023-05-25T01:55:18.302Z,873.00
2023-05-25T01:56:18.340Z,871.00
2023-05-25T01:57:18.366Z,873.00
2023-05-25T01:58:18.397Z,874.00
2023-05-25T01:59:18.424Z,872.00
2023-05-25T02:00:18.438Z,870.00
2023-05-25T02:01:18.529Z,868.00
2023-05-25T02:02:18.491Z,867.00
2023-05-25T02:03:18.529Z,867.00
2023-05-25T02:04:18.571Z,867.00
2023-05-25T02:05:18.598Z,868.00
2023-05-25T02:06:18.596Z,868.00
2023-05-25T02:07:18.638Z,870.00
2023-05-25T02:08:18.643Z,866.00
2023-05-25T02:09:18.666Z,866.00
2023-05-25T02:10:18.699Z,867.00
2023-05-25T02:11:18.774Z,870.00
2023-05-25T02:12:18.787Z,871.00
2023-05-25T02:13:18.786Z,870.00
2023-05-25T02:14:18.798Z,868.00
2023-05-25T02:15:18.820Z,867.00
2023-05-25T02:16:18.945Z,867.00
2023-05-25T02:17:18.904Z,867.00
2023-05-25T02:18:18.923Z,866.00
2023-05-25T02:19:18.960Z,865.00
2023-05-25T02:20:19.021Z,864.00
2023-05-25T02:21:18.990Z,865.00
2023-05-25T02:22:19.024Z,865.00
2023-05-25T02:23:19.105Z,864.00
2023-05-25T02:24:19.086Z,864.00
2023-05-25T02:25:19.109Z,863.00
2023-05-25T02:26:19.150Z,857.00
2023-05-25T02:27:19.154Z,857.00
2023-05-25T02:28:19.205Z,858.00
2023-05-25T02:29:19.224Z,857.00
2023-05-25T02:30:19.255Z,861.00
2023-05-25T02:31:19.312Z,863.00
2023-05-25T02:32:19.370Z,867.00
2023-05-25T02:33:19.351Z,870.00
2023-05-25T02:34:19.365Z,869.00
2023-05-25T02:35:19.404Z,868.00
2023-05-25T02:36:19.424Z,865.00
2023-05-25T02:37:19.449Z,871.00
2023-05-25T02:38:19.478Z,871.00
2023-05-25T02:39:19.552Z,868.00
2023-05-25T02:40:19.551Z,867.00
2023-05-25T02:41:19.566Z,867.00
2023-05-25T02:42:19.594Z,865.00
2023-05-25T02:43:19.638Z,862.00
2023-05-25T02:44:19.672Z,860.00
2023-05-25T02:45:19.683Z,861.00
2023-05-25T02:46:19.784Z,863.00
2023-05-25T02:47:19.771Z,865.00
2023-05-25T02:48:19.764Z,866.00
2023-05-25T02:49:19.828Z,868.00
2023-05-25T02:50:19.822Z,867.00
2023-05-25T02:51:19.850Z,867.00
2023-05-25T02:52:19.888Z,867.00
2023-05-25T02:53:19.893Z,865.00
2023-05-25T02:54:19.917Z,863.00
2023-05-25T02:55:19.946Z,862.00
2023-05-25T02:56:19.992Z,861.00
2023-05-25T02:57:20.002Z,861.00
2023-05-25T02:58:20.036Z,864.00
2023-05-25T02:59:20.084Z,863.00
2023-05-25T03:00:20.073Z,867.00
2023-05-25T03:01:20.127Z,868.00
2023-05-25T03:02:20.184Z,865.00
2023-05-25T03:03:20.201Z,865.00
2023-05-25T03:04:20.192Z,862.00
2023-05-25T03:05:20.271Z,861.00
2023-05-25T03:06:20.267Z,862.00
2023-05-25T03:07:20.284Z,861.00
2023-05-25T03:08:20.332Z,860.00
2023-05-25T03:09:20.467Z,857.00
2023-05-25T03:10:20.376Z,859.00
2023-05-25T03:11:20.409Z,857.00
2023-05-25T03:12:20.444Z,856.00
2023-05-25T03:13:20.481Z,853.00
2023-05-25T03:14:20.517Z,856.00
2023-05-25T03:15:20.539Z,861.00
2023-05-25T03:16:20.601Z,864.00
2023-05-25T03:17:20.706Z,865.00
2023-05-25T03:18:20.656Z,865.00
2023-05-25T03:19:20.655Z,867.00
2023-05-25T03:20:20.722Z,865.00
2023-05-25T03:21:20.739Z,864.00
2023-05-25T03:22:20.765Z,865.00
2023-05-25T03:23:20.789Z,864.00
2023-05-25T03:24:20.819Z,861.00
2023-05-25T03:25:20.886Z,863.00
2023-05-25T03:26:20.876Z,863.00
2023-05-25T03:27:20.932Z,858.00
2023-05-25T03:28:20.940Z,858.00
2023-05-25T03:29:20.984Z,861.00
2023-05-25T03:30:21.014Z,864.00
2023-05-25T03:31:21.090Z,862.00
2023-05-25T03:32:21.163Z,859.00
2023-05-25T03:33:21.142Z,858.00
2023-05-25T03:34:21.153Z,859.00
2023-05-25T03:35:21.202Z,858.00
2023-05-25T03:36:21.235Z,859.00
2023-05-25T03:37:21.271Z,859.00
2023-05-25T03:38:21.309Z,857.00
2023-05-25T03:39:21.337Z,856.00
2023-05-25T03:40:21.366Z,857.00
2023-05-25T03:41:21.395Z,858.00
2023-05-25T03:42:21.456Z,859.00
2023-05-25T03:43:21.467Z,862.00
2023-05-25T03:44:21.502Z,862.00
2023-05-25T03:45:21.578Z,859.00
2023-05-25T03:46:21.609Z,858.00
2023-05-25T03:47:21.652Z,856.00
2023-05-25T03:48:21.649Z,858.00
2023-05-25T03:49:21.643Z,857.00
2023-05-25T03:50:21.673Z,856.00
2023-05-25T03:51:21.713Z,856.00
2023-05-25T03:52:21.746Z,855.00
2023-05-25T03:53:21.789Z,856.00
2023-05-25T03:54:21.789Z,856.00
2023-05-25T03:55:21.817Z,853.00
2023-05-25T03:56:21.876Z,853.00
2023-05-25T03:57:21.889Z,855.00
2023-05-25T03:58:21.949Z,856.00
2023-05-25T03:59:21.952Z,855.00
2023-05-25T04:00:22.002Z,854.00
2023-05-25T04:01:21.984Z,855.00
2023-05-25T04:02:22.158Z,855.00
2023-05-25T04:03:22.308Z,856.00
2023-05-25T04:04:22.226Z,854.00
2023-05-25T04:05:22.105Z,853.00
2023-05-25T04:06:22.161Z,855.00
2023-05-25T04:07:22.164Z,858.00
2023-05-25T04:08:22.256Z,863.00
2023-05-25T04:09:22.226Z,862.00
2023-05-25T04:10:22.243Z,859.00
2023-05-25T04:11:22.297Z,857.00
2023-05-25T04:12:22.319Z,857.00
2023-05-25T04:13:22.353Z,858.00
2023-05-25T04:14:22.383Z,857.00
2023-05-25T04:15:22.434Z,856.00
2023-05-25T04:16:22.536Z,854.00
2023-05-25T04:17:22.518Z,854.00
2023-05-25T04:18:22.554Z,855.00
2023-05-25T04:19:22.570Z,855.00
2023-05-25T04:20:22.618Z,857.00
2023-05-25T04:21:22.618Z,855.00
2023-05-25T04:22:22.681Z,854.00
2023-05-25T04:23:22.692Z,854.00
2023-05-25T04:24:22.709Z,852.00
2023-05-25T04:25:22.737Z,852.00
2023-05-25T04:26:22.790Z,852.00
2023-05-25T04:27:22.796Z,853.00
2023-05-25T04:28:22.865Z,857.00
2023-05-25T04:29:22.886Z,859.00
2023-05-25T04:30:22.910Z,860.00
2023-05-25T04:31:22.982Z,860.00
2023-05-25T04:32:23.009Z,861.00
2023-05-25T04:33:23.032Z,862.00
2023-05-25T04:34:23.064Z,862.00
2023-05-25T04:35:23.063Z,862.00
2023-05-25T04:36:23.104Z,862.00
2023-05-25T04:37:23.137Z,858.00
2023-05-25T04:38:23.189Z,855.00
2023-05-25T04:39:23.215Z,855.00
2023-05-25T04:40:23.250Z,855.00
2023-05-25T04:41:23.285Z,853.00
2023-05-25T04:42:23.289Z,855.00
2023-05-25T04:43:23.355Z,853.00
2023-05-25T04:44:23.365Z,854.00
2023-05-25T04:45:23.391Z,855.00
2023-05-25T04:46:23.531Z,855.00
2023-05-25T04:47:23.494Z,854.00
2023-05-25T04:48:23.491Z,852.00
2023-05-25T04:49:23.529Z,850.00
2023-05-25T04:50:23.534Z,851.00
2023-05-25T04:51:23.578Z,849.00
2023-05-25T04:52:23.612Z,850.00
2023-05-25T04:53:23.635Z,849.00
2023-05-25T04:54:23.671Z,847.00
2023-05-25T04:55:23.688Z,845.00
2023-05-25T04:56:23.713Z,844.00
2023-05-25T04:57:23.725Z,844.00
2023-05-25T04:58:23.752Z,843.00
2023-05-25T04:59:23.897Z,846.00
2023-05-25T05:00:23.843Z,845.00
2023-05-25T05:01:23.874Z,844.00
2023-05-25T05:02:23.872Z,846.00
2023-05-25T05:03:23.993Z,849.00
2023-05-25T05:04:23.959Z,848.00
2023-05-25T05:05:23.972Z,848.00
2023-05-25T05:06:24.003Z,849.00
2023-05-25T05:07:24.033Z,848.00
2023-05-25T05:08:24.057Z,847.00
2023-05-25T05:09:24.103Z,844.00
2023-05-25T05:10:24.121Z,843.00
2023-05-25T05:11:24.143Z,843.00
2023-05-25T05:12:24.183Z,844.00
2023-05-25T05:13:24.234Z,846.00
2023-05-25T05:14:24.241Z,844.00
2023-05-25T05:15:24.276Z,843.00
2023-05-25T05:16:24.341Z,843.00
2023-05-25T05:17:24.342Z,842.00
2023-05-25T05:18:24.374Z,841.00
2023-05-25T05:19:24.392Z,840.00
2023-05-25T05:20:24.446Z,841.00
2023-05-25T05:21:24.450Z,840.00
2023-05-25T05:22:24.545Z,839.00
2023-05-25T05:23:24.553Z,840.00
2023-05-25T05:24:24.562Z,839.00
2023-05-25T05:25:24.572Z,844.00
2023-05-25T05:26:24.620Z,843.00
2023-05-25T05:27:24.679Z,843.00
2023-05-25T05:28:24.711Z,846.00
2023-05-25T05:29:24.869Z,845.00
2023-05-25T05:30:24.743Z,848.00
2023-05-25T05:31:24.785Z,849.00
2023-05-25T05:32:24.895Z,847.00
2023-05-25T05:33:25.045Z,846.00
2023-05-25T05:34:24.928Z,850.00
2023-05-25T05:35:24.908Z,877.00
2023-05-25T05:36:24.969Z,969.00
2023-05-25T05:37:24.962Z,1090.00
2023-05-25T05:38:25.041Z,1079.00
2023-05-25T05:39:25.115Z,1075.00
2023-05-25T05:40:25.054Z,1078.00
2023-05-25T05:41:25.063Z,1128.00
2023-05-25T05:42:25.082Z,1131.00
2023-05-25T05:43:25.131Z,1082.00
2023-05-25T05:44:28.787Z,977.00
2023-05-25T05:45:25.209Z,955.00
2023-05-25T05:46:25.157Z,936.00
2023-05-25T05:47:25.134Z,862.00
2023-05-25T05:48:25.970Z,864.00
2023-05-25T05:49:25.144Z,790.00
2023-05-25T05:50:25.090Z,798.00
2023-05-25T05:51:25.087Z,861.00
2023-05-25T05:52:25.082Z,867.00
2023-05-25T05:53:25.077Z,871.00
2023-05-25T05:54:25.057Z,861.00
2023-05-25T05:55:25.040Z,860.00
2023-05-25T05:56:25.086Z,874.00
2023-05-25T05:57:25.038Z,890.00
2023-05-25T05:58:25.028Z,893.00
2023-05-25T05:59:25.027Z,887.00
2023-05-25T06:00:25.008Z,917.00
2023-05-25T06:01:25.037Z,914.00
2023-05-25T06:02:25.100Z,920.00
2023-05-25T06:03:25.009Z,902.00
2023-05-25T06:04:24.987Z,922.00
2023-05-25T06:05:25.117Z,933.00
2023-05-25T06:06:24.963Z,942.00
2023-05-25T06:07:25.011Z,959.00
2023-05-25T06:08:24.952Z,997.00
2023-05-25T06:09:24.997Z,1015.00
2023-05-25T06:10:24.939Z,1034.00
2023-05-25T06:11:24.947Z,1055.00
2023-05-25T06:12:24.931Z,1069.00
2023-05-25T06:13:24.936Z,1090.00
2023-05-25T06:14:27.522Z,1172.00
2023-05-25T06:15:24.914Z,1187.00
2023-05-25T06:16:24.992Z,1205.00
2023-05-25T06:17:24.983Z,1225.00
2023-05-25T06:18:24.895Z,1240.00
2023-05-25T06:19:24.886Z,1258.00
2023-05-25T06:20:24.950Z,1258.00
2023-05-25T06:21:24.856Z,1199.00
2023-05-25T06:22:24.854Z,1210.00
2023-05-25T06:23:24.892Z,1206.00
2023-05-25T06:24:24.847Z,919.00
2023-05-25T06:25:24.875Z,907.00
2023-05-25T06:26:24.876Z,897.00
2023-05-25T06:27:24.817Z,897.00
2023-05-25T06:28:25.447Z,909.00
2023-05-25T06:29:24.846Z,948.00
2023-05-25T06:30:24.932Z,962.00
2023-05-25T06:31:24.822Z,983.00
2023-05-25T06:32:24.829Z,1018.00
2023-05-25T06:33:24.779Z,1038.00
2023-05-25T06:34:24.798Z,1061.00
2023-05-25T06:35:24.841Z,1103.00
2023-05-25T06:36:24.794Z,1132.00
2023-05-25T06:37:24.909Z,1147.00
2023-05-25T06:38:25.949Z,1172.00
2023-05-25T06:39:24.982Z,1303.00
2023-05-25T06:40:24.758Z,1319.00
2023-05-25T06:41:24.758Z,1190.00
2023-05-25T06:42:24.738Z,1173.00
2023-05-25T06:43:25.481Z,1151.00
2023-05-25T06:44:24.716Z,1163.00
2023-05-25T06:45:24.688Z,1163.00
2023-05-25T06:46:24.733Z,1169.00
2023-05-25T06:47:24.710Z,1175.00
2023-05-25T06:48:24.708Z,1189.00
2023-05-25T06:49:24.683Z,1196.00
2023-05-25T06:50:24.672Z,1220.00
2023-05-25T06:51:24.681Z,1222.00
2023-05-25T06:52:24.687Z,1228.00
2023-05-25T06:53:24.699Z,1250.00
2023-05-25T06:54:24.664Z,1310.00
2023-05-25T06:55:24.681Z,1337.00
2023-05-25T06:56:24.690Z,1394.00
2023-05-25T06:57:24.632Z,1419.00
2023-05-25T06:58:24.618Z,1485.00
2023-05-25T06:59:24.610Z,1513.00
2023-05-25T07:00:24.594Z,1566.00
2023-05-25T07:01:24.608Z,1609.00
2023-05-25T07:02:24.790Z,1627.00
2023-05-25T07:03:24.815Z,1695.00
2023-05-25T07:04:24.860Z,1741.00
2023-05-25T07:05:25.069Z,1766.00
2023-05-25T07:06:24.926Z,1904.00
2023-05-25T07:07:25.077Z,1884.00
2023-05-25T07:08:25.035Z,1945.00
2023-05-25T07:09:25.083Z,1967.00
2023-05-25T07:10:25.154Z,2055.00
2023-05-25T07:11:25.167Z,2102.00
2023-05-25T07:12:25.218Z,2112.00
2023-05-25T07:13:25.251Z,2137.00
2023-05-25T07:14:25.303Z,2180.00
2023-05-25T07:15:25.402Z,2211.00
2023-05-25T07:16:25.494Z,2247.00
2023-05-25T07:17:25.646Z,2317.00
2023-05-25T07:18:25.545Z,2324.00
2023-05-25T07:19:25.588Z,2365.00
2023-05-25T07:20:25.776Z,2392.00
2023-05-25T07:21:25.658Z,2416.00
2023-05-25T07:22:25.734Z,2459.00
2023-05-25T07:23:25.778Z,2517.00
2023-05-25T07:24:25.846Z,2535.00
2023-05-25T07:25:25.910Z,2546.00
2023-05-25T07:26:25.950Z,2566.00
2023-05-25T07:27:25.996Z,2579.00
2023-05-25T07:28:26.045Z,2594.00
2023-05-25T07:29:26.122Z,2607.00
2023-05-25T07:30:26.209Z,2628.00
2023-05-25T07:31:26.268Z,2665.00
2023-05-25T07:32:26.331Z,2733.00
2023-05-25T07:33:26.345Z,2792.00
2023-05-25T07:34:27.891Z,2808.00
2023-05-25T07:35:26.401Z,2798.00
2023-05-25T07:36:26.474Z,2304.00
2023-05-25T07:37:26.512Z,2188.00
2023-05-25T07:38:26.584Z,2169.00
2023-05-25T07:39:26.658Z,2088.00
2023-05-25T07:40:26.740Z,2055.00
2023-05-25T07:41:26.699Z,2010.00
2023-05-25T07:42:26.774Z,1977.00
2023-05-25T07:43:26.792Z,1946.00
2023-05-25T07:44:26.885Z,1903.00
2023-05-25T07:45:26.937Z,1874.00
2023-05-25T07:46:26.950Z,1850.00
2023-05-25T07:47:27.124Z,1830.00
2023-05-25T07:48:27.043Z,1782.00
2023-05-25T07:49:27.105Z,1762.00
2023-05-25T07:50:27.221Z,1742.00
2023-05-25T07:51:27.222Z,1722.00
2023-05-25T07:52:27.312Z,1684.00
2023-05-25T07:53:27.556Z,1583.00
2023-05-25T07:54:27.358Z,1506.00
2023-05-25T07:55:27.391Z,1485.00
2023-05-25T07:56:27.494Z,1485.00
2023-05-25T07:57:27.553Z,1486.00
2023-05-25T07:58:27.579Z,1481.00
2023-05-25T07:59:27.629Z,1477.00
2023-05-25T08:00:27.693Z,1481.00
2023-05-25T08:01:27.759Z,1480.00
2023-05-25T08:02:27.865Z,1470.00
2023-05-25T08:03:39.969Z,1464.00
2023-05-25T08:04:28.940Z,1455.00
2023-05-25T08:05:27.816Z,1450.00
2023-05-25T08:06:27.797Z,1447.00
2023-05-25T08:07:27.799Z,1442.00
2023-05-25T08:08:27.812Z,1436.00
2023-05-25T08:09:27.773Z,1424.00
2023-05-25T08:10:27.812Z,1392.00
2023-05-25T08:11:27.773Z,1382.00
2023-05-25T08:12:46.148Z,1379.00
2023-05-25T08:13:28.763Z,1378.00
2023-05-25T08:14:27.755Z,1381.00
2023-05-25T08:15:27.815Z,1381.00
2023-05-25T08:16:27.780Z,1381.00
2023-05-25T08:17:27.766Z,1384.00
2023-05-25T08:18:27.740Z,1390.00
2023-05-25T08:19:27.745Z,1404.00
2023-05-25T08:20:27.717Z,1467.00
2023-05-25T08:21:27.687Z,1495.00
2023-05-25T08:22:27.699Z,1562.00
2023-05-25T08:23:27.677Z,1583.00
2023-05-25T08:24:27.729Z,1596.00
2023-05-25T08:25:27.800Z,1606.00
2023-05-25T08:26:34.857Z,1608.00
2023-05-25T08:27:28.797Z,1604.00
2023-05-25T08:28:27.994Z,1602.00
2023-05-25T08:29:27.991Z,1599.00
2023-05-25T08:30:27.803Z,1591.00
2023-05-25T08:31:27.806Z,1587.00
2023-05-25T08:32:27.854Z,1581.00
2023-05-25T08:33:27.798Z,1573.00
2023-05-25T08:34:27.788Z,1564.00
2023-05-25T08:35:27.801Z,1560.00
2023-05-25T08:36:27.758Z,1557.00
2023-05-25T08:37:27.797Z,1553.00
2023-05-25T08:38:27.876Z,1553.00
2023-05-25T08:39:28.033Z,1551.00
2023-05-25T08:40:27.944Z,1546.00
2023-05-25T08:41:28.011Z,1550.00
2023-05-25T08:42:28.093Z,1547.00
2023-05-25T08:43:28.145Z,1548.00
2023-05-25T08:44:28.546Z,1564.00
2023-05-25T08:45:35.568Z,1488.00
2023-05-25T08:46:29.264Z,1489.00
2023-05-25T08:47:28.282Z,1465.00
2023-05-25T08:48:40.103Z,1401.00
2023-05-25T08:49:30.184Z,1320.00
2023-05-25T08:50:28.321Z,1225.00
2023-05-25T08:51:30.104Z,1204.00
2023-05-25T08:52:28.196Z,1181.00
2023-05-25T08:53:28.250Z,1161.00
2023-05-25T08:54:28.182Z,1148.00
2023-05-25T08:55:28.155Z,1146.00
2023-05-25T08:56:28.181Z,1144.00
2023-05-25T08:57:28.171Z,1138.00
2023-05-25T08:58:28.251Z,1129.00
2023-05-25T08:59:28.257Z,1122.00
2023-05-25T09:00:28.306Z,1053.00
2023-05-25T09:01:28.370Z,1062.00
2023-05-25T09:02:28.471Z,1081.00
2023-05-25T09:03:28.684Z,1084.00
2023-05-25T09:04:28.499Z,1086.00
2023-05-25T09:05:28.555Z,1088.00
2023-05-25T09:06:28.591Z,1093.00
2023-05-25T09:07:28.669Z,1079.00
2023-05-25T09:08:28.671Z,1070.00
2023-05-25T09:09:28.763Z,1067.00
2023-05-25T09:10:28.795Z,1070.00
2023-05-25T09:11:38.762Z,1062.00
2023-05-25T09:12:29.836Z,1053.00
2023-05-25T09:13:28.833Z,1061.00
2023-05-25T09:14:28.824Z,1064.00
2023-05-25T09:15:28.855Z,1073.00
2023-05-25T09:16:28.842Z,1077.00
2023-05-25T09:17:28.806Z,1075.00
2023-05-25T09:18:28.877Z,1069.00
2023-05-25T09:19:28.805Z,1072.00
2023-05-25T09:20:28.804Z,1082.00
2023-05-25T09:21:29.039Z,1080.00
2023-05-25T09:22:28.773Z,1084.00
2023-05-25T09:23:28.757Z,1092.00
2023-05-25T09:24:28.777Z,1085.00
2023-05-25T09:25:28.803Z,1069.00
2023-05-25T09:26:28.894Z,1100.00
2023-05-25T09:27:28.915Z,1117.00
2023-05-25T09:28:28.903Z,1124.00
2023-05-25T09:29:28.996Z,1115.00
2023-05-25T09:30:28.990Z,1112.00
2023-05-25T09:31:29.077Z,1111.00
2023-05-25T09:32:29.166Z,1104.00
2023-05-25T09:33:29.113Z,1231.00
2023-05-25T09:34:29.566Z,1231.00
2023-05-25T09:35:29.145Z,1086.00
2023-05-25T09:36:29.233Z,1096.00
2023-05-25T09:37:29.342Z,1007.00
2023-05-25T09:38:29.401Z,997.00
2023-05-25T09:39:29.687Z,1017.00
2023-05-25T09:40:29.294Z,967.00
2023-05-25T09:41:29.418Z,893.00
2023-05-25T09:42:29.367Z,902.00
2023-05-25T09:43:40.677Z,900.00
2023-05-25T09:44:30.542Z,910.00
2023-05-25T09:45:29.372Z,914.00
2023-05-25T09:46:29.462Z,894.00
2023-05-25T09:47:29.372Z,842.00
2023-05-25T09:48:29.383Z,845.00
2023-05-25T09:49:29.596Z,853.00
2023-05-25T09:50:29.432Z,850.00
2023-05-25T09:51:31.095Z,762.00
2023-05-25T09:52:29.312Z,738.00
2023-05-25T09:53:29.333Z,748.00
2023-05-25T09:54:29.637Z,745.00
2023-05-25T09:55:36.897Z,723.00
2023-05-25T09:56:30.320Z,707.00
2023-05-25T09:57:29.310Z,699.00
2023-05-25T09:58:29.282Z,692.00
2023-05-25T09:59:29.269Z,651.00
2023-05-25T10:00:29.291Z,662.00
2023-05-25T10:01:29.252Z,669.00
2023-05-25T10:02:29.288Z,657.00
2023-05-25T10:03:29.252Z,602.00
2023-05-25T10:04:29.284Z,615.00
2023-05-25T10:05:29.251Z,623.00
2023-05-25T10:06:29.242Z,617.00
2023-05-25T10:07:29.287Z,621.00
2023-05-25T10:08:29.382Z,625.00
2023-05-25T10:09:29.432Z,617.00
2023-05-25T10:10:29.612Z,615.00
2023-05-25T10:11:29.553Z,610.00
2023-05-25T10:12:29.630Z,611.00
2023-05-25T10:13:29.690Z,623.00
2023-05-25T10:14:30.180Z,639.00
2023-05-25T10:15:29.791Z,643.00
2023-05-25T10:16:30.032Z,653.00
2023-05-25T10:17:29.920Z,630.00
2023-05-25T10:18:29.943Z,618.00
2023-05-25T10:19:30.036Z,649.00
2023-05-25T10:20:32.130Z,665.00
2023-05-25T10:21:30.095Z,679.00
2023-05-25T10:22:30.065Z,516.00
2023-05-25T10:23:30.093Z,520.00
2023-05-25T10:24:30.038Z,526.00
2023-05-25T10:25:30.039Z,534.00
2023-05-25T10:26:30.060Z,565.00
2023-05-25T10:27:30.033Z,596.00
2023-05-25T10:28:30.098Z,603.00
2023-05-25T10:29:30.057Z,608.00
2023-05-25T10:30:29.998Z,668.00
2023-05-25T10:31:30.368Z,672.00
2023-05-25T10:32:31.642Z,739.00
2023-05-25T10:34:30.068Z,770.00
2023-05-25T10:35:32.489Z,776.00
2023-05-25T10:36:30.014Z,787.00
2023-05-25T10:37:29.980Z,783.00
2023-05-25T10:38:29.977Z,783.00
2023-05-25T10:39:30.001Z,786.00
2023-05-25T10:40:29.940Z,790.00
2023-05-25T10:41:29.921Z,788.00
2023-05-25T10:42:29.947Z,787.00
2023-05-25T10:43:29.939Z,787.00
2023-05-25T10:44:30.089Z,787.00
2023-05-25T10:45:29.917Z,788.00
2023-05-25T10:46:29.937Z,787.00
2023-05-25T10:47:29.907Z,784.00
2023-05-25T10:48:29.892Z,784.00
2023-05-25T10:49:29.901Z,783.00
2023-05-25T10:50:29.875Z,783.00
2023-05-25T10:51:29.859Z,786.00
2023-05-25T10:52:29.920Z,790.00
2023-05-25T10:53:29.911Z,789.00
2023-05-25T10:54:30.059Z,790.00
2023-05-25T10:55:29.852Z,787.00
2023-05-25T10:56:29.855Z,785.00
2023-05-25T10:57:29.857Z,786.00
2023-05-25T10:58:29.814Z,787.00
2023-05-25T10:59:29.829Z,786.00
2023-05-25T11:00:29.924Z,786.00
2023-05-25T11:01:29.866Z,784.00
2023-05-25T11:02:29.904Z,784.00
2023-05-25T11:03:29.795Z,784.00
2023-05-25T11:04:29.846Z,785.00
2023-05-25T11:05:29.801Z,785.00
2023-05-25T11:06:29.758Z,783.00
2023-05-25T11:07:29.776Z,779.00
2023-05-25T11:08:29.747Z,780.00
2023-05-25T11:09:29.743Z,778.00
2023-05-25T11:10:29.734Z,779.00
2023-05-25T11:11:29.724Z,780.00
2023-05-25T11:12:29.777Z,783.00
2023-05-25T11:13:29.814Z,783.00
2023-05-25T11:14:29.897Z,783.00
2023-05-25T11:15:29.953Z,784.00
2023-05-25T11:16:30.109Z,784.00
2023-05-25T11:17:30.116Z,785.00
2023-05-25T11:18:30.123Z,785.00
2023-05-25T11:19:30.169Z,785.00
2023-05-25T11:20:30.308Z,784.00
2023-05-25T11:21:30.324Z,785.00
2023-05-25T11:22:30.387Z,783.00
2023-05-25T11:23:30.379Z,783.00
2023-05-25T11:24:30.570Z,782.00
2023-05-25T11:25:30.512Z,782.00
2023-05-25T11:26:30.590Z,786.00
2023-05-25T11:27:30.629Z,788.00
2023-05-25T11:28:30.692Z,787.00
2023-05-25T11:29:30.759Z,786.00
2023-05-25T11:30:30.800Z,788.00
2023-05-25T11:31:30.947Z,786.00
2023-05-25T11:32:30.974Z,784.00
2023-05-25T11:33:30.950Z,784.00
2023-05-25T11:34:31.020Z,786.00
2023-05-25T11:35:31.047Z,789.00
2023-05-25T11:36:31.081Z,789.00
2023-05-25T11:37:31.139Z,788.00
2023-05-25T11:38:31.179Z,792.00
2023-05-25T11:39:31.206Z,795.00
2023-05-25T11:40:31.291Z,798.00
2023-05-25T11:41:31.348Z,796.00
2023-05-25T11:42:31.344Z,792.00
2023-05-25T11:43:31.411Z,792.00
2023-05-25T11:44:31.569Z,793.00
2023-05-25T11:45:31.522Z,795.00
2023-05-25T11:46:31.581Z,794.00
2023-05-25T11:47:33.147Z,791.00
2023-05-25T11:48:31.707Z,790.00
2023-05-25T11:49:31.764Z,790.00
2023-05-25T11:50:31.796Z,789.00
2023-05-25T11:51:31.870Z,792.00
2023-05-25T11:52:31.908Z,791.00
2023-05-25T11:53:32.557Z,793.00
2023-05-25T11:54:32.033Z,792.00
2023-05-25T11:55:32.071Z,792.00
2023-05-25T11:56:35.685Z,791.00
2023-05-25T11:57:32.099Z,790.00
2023-05-25T11:58:32.106Z,791.00
2023-05-25T11:59:32.709Z,792.00
2023-05-25T12:00:32.095Z,792.00
2023-05-25T12:01:32.154Z,790.00
2023-05-25T12:02:32.093Z,789.00
2023-05-25T12:03:32.221Z,789.00
2023-05-25T12:04:32.162Z,790.00
2023-05-25T12:05:32.107Z,794.00
2023-05-25T12:06:32.071Z,795.00
2023-05-25T12:07:32.054Z,794.00
2023-05-25T12:08:32.033Z,793.00
2023-05-25T12:09:32.041Z,792.00
2023-05-25T12:10:32.050Z,790.00
2023-05-25T12:11:32.023Z,790.00
2023-05-25T12:12:32.017Z,790.00
2023-05-25T12:13:32.062Z,792.00
2023-05-25T12:14:32.019Z,794.00
2023-05-25T12:15:32.008Z,793.00
2023-05-25T12:16:32.035Z,793.00
2023-05-25T12:17:32.016Z,794.00
2023-05-25T12:18:32.003Z,796.00
2023-05-25T12:19:31.974Z,797.00
2023-05-25T12:20:31.980Z,795.00
2023-05-25T12:21:31.958Z,793.00
2023-05-25T12:22:31.988Z,792.00